Time,TemperatureF,DewpointF,PressureIn,WindDirection,WindDirectionDegrees,WindSpeedMPH,WindSpeedGustMPH,Humidity,HourlyPrecipIn,Conditions,Clouds,dailyrainin,SoftwareType,DateUTC
2013-08-21 00:12:00,57.0,42.0,-100.00,South,176,3.0,4.0,57,0.00,,,0.00,,2013-08-21 06:12:00,
2013-08-21 00:22:00,57.0,42.0,-100.00,South,176,3.0,4.0,57,0.00,,,0.00,,2013-08-21 06:22:00,
2013-08-21 00:32:00,57.0,42.0,-100.00,South,176,3.0,4.0,57,0.00,,,0.00,,2013-08-21 06:32:00,
2013-08-21 00:42:00,59.0,42.0,-100.00,South,172,2.0,5.0,54,0.00,,,0.00,,2013-08-21 06:42:00,
2013-08-21 01:11:00,59.0,42.0,-100.00,South,172,2.0,5.0,54,0.00,,,0.00,,2013-08-21 07:11:00,
2013-08-21 01:21:00,59.0,42.0,-100.00,South,172,2.0,5.0,54,0.00,,,0.00,,2013-08-21 07:21:00,
2013-08-21 01:32:00,59.0,42.0,-100.00,South,172,2.0,5.0,54,0.00,,,0.00,,2013-08-21 07:32:00,
2013-08-21 01:42:00,56.0,44.0,-100.00,SE,143,3.0,5.0,64,0.00,,,0.00,,2013-08-21 07:42:00,
2013-08-21 02:12:00,56.0,44.0,-100.00,SE,143,3.0,5.0,64,0.00,,,0.00,,2013-08-21 08:12:00,
2013-08-21 02:22:00,56.0,44.0,-100.00,SE,143,3.0,5.0,64,0.00,,,0.00,,2013-08-21 08:22:00,
2013-08-21 02:32:00,56.0,44.0,-100.00,SE,143,3.0,5.0,64,0.00,,,0.00,,2013-08-21 08:32:00,
2013-08-21 02:42:00,55.0,43.0,-100.00,South,173,4.0,6.0,64,0.00,,,0.00,,2013-08-21 08:42:00,
2013-08-21 03:11:00,55.0,43.0,-100.00,South,173,4.0,6.0,64,0.00,,,0.00,,2013-08-21 09:11:00,
2013-08-21 03:22:00,55.0,43.0,-100.00,South,173,4.0,6.0,64,0.00,,,0.00,,2013-08-21 09:22:00,
2013-08-21 03:33:00,55.0,43.0,-100.00,South,173,4.0,6.0,64,0.00,,,0.00,,2013-08-21 09:33:00,
2013-08-21 03:42:00,55.0,46.0,-100.00,SSW,194,6.0,10.0,72,0.00,,,0.00,,2013-08-21 09:42:00,
2013-08-21 04:12:00,55.0,46.0,-100.00,SSW,194,6.0,10.0,72,0.00,,,0.00,,2013-08-21 10:12:00,
2013-08-21 04:23:00,55.0,46.0,-100.00,SSW,194,6.0,10.0,72,0.00,,,0.00,,2013-08-21 10:23:00,
2013-08-21 04:33:00,55.0,46.0,-100.00,SSW,194,6.0,10.0,72,0.00,,,0.00,,2013-08-21 10:33:00,
2013-08-21 04:42:00,52.0,46.0,-100.00,South,172,2.0,10.0,79,0.00,,,0.00,,2013-08-21 10:42:00,
2013-08-21 05:12:00,52.0,46.0,-100.00,South,172,2.0,10.0,79,0.00,,,0.00,,2013-08-21 11:12:00,
2013-08-21 05:22:00,52.0,46.0,-100.00,South,172,2.0,10.0,79,0.00,,,0.00,,2013-08-21 11:22:00,
2013-08-21 05:33:00,52.0,46.0,-100.00,South,172,2.0,10.0,79,0.00,,,0.00,,2013-08-21 11:33:00,
2013-08-21 06:12:00,54.0,46.0,-100.00,SSE,147,4.0,9.0,75,0.00,,,0.00,,2013-08-21 12:12:00,
2013-08-21 06:22:00,54.0,46.0,-100.00,SSE,147,4.0,9.0,75,0.00,,,0.00,,2013-08-21 12:22:00,
2013-08-21 06:32:00,54.0,46.0,-100.00,SSE,147,4.0,9.0,75,0.00,,,0.00,,2013-08-21 12:32:00,
2013-08-21 06:41:00,54.0,46.0,-100.00,SSE,147,4.0,9.0,75,0.00,,,0.00,,2013-08-21 12:41:00,
2013-08-21 06:42:00,55.0,45.0,-100.00,WSW,256,4.0,11.0,69,0.00,,,0.00,,2013-08-21 12:42:00,
2013-08-21 07:12:00,55.0,45.0,-100.00,WSW,256,4.0,11.0,69,0.00,,,0.00,,2013-08-21 13:12:00,
2013-08-21 07:21:00,55.0,45.0,-100.00,WSW,256,4.0,11.0,69,0.00,,,0.00,,2013-08-21 13:21:00,
2013-08-21 07:32:00,55.0,45.0,-100.00,WSW,256,4.0,11.0,69,0.00,,,0.00,,2013-08-21 13:32:00,
2013-08-21 07:42:00,58.0,43.0,-100.00,South,171,5.0,9.0,57,0.00,,,0.00,,2013-08-21 13:42:00,
2013-08-21 08:11:00,58.0,43.0,-100.00,South,171,5.0,9.0,57,0.00,,,0.00,,2013-08-21 14:11:00,
2013-08-21 08:21:00,58.0,43.0,-100.00,South,171,5.0,9.0,57,0.00,,,0.00,,2013-08-21 14:21:00,
2013-08-21 08:32:00,58.0,43.0,-100.00,South,171,5.0,9.0,57,0.00,,,0.00,,2013-08-21 14:32:00,
2013-08-21 09:42:00,71.0,48.0,-100.00,NW,306,4.0,7.0,44,0.00,,,0.00,,2013-08-21 15:42:00,
2013-08-21 10:13:00,71.0,48.0,-100.00,NW,306,4.0,7.0,44,0.00,,,0.00,,2013-08-21 16:13:00,
2013-08-21 10:24:00,71.0,48.0,-100.00,NW,306,4.0,7.0,44,0.00,,,0.00,,2013-08-21 16:24:00,
2013-08-21 10:34:00,71.0,48.0,-100.00,NW,306,4.0,7.0,44,0.00,,,0.00,,2013-08-21 16:34:00,
2013-08-21 10:42:00,72.0,48.0,-100.00,NNW,343,4.0,8.0,42,0.00,,,0.00,,2013-08-21 16:42:00,
2013-08-21 11:13:00,72.0,48.0,-100.00,NNW,343,4.0,8.0,42,0.00,,,0.00,,2013-08-21 17:13:00,
2013-08-21 11:23:00,72.0,48.0,-100.00,NNW,343,4.0,8.0,42,0.00,,,0.00,,2013-08-21 17:23:00,
2013-08-21 11:34:00,72.0,48.0,-100.00,NNW,343,4.0,8.0,42,0.00,,,0.00,,2013-08-21 17:34:00,
2013-08-21 11:42:00,76.0,41.0,-100.00,South,186,5.0,19.0,29,0.00,,,0.00,,2013-08-21 17:42:00,
2013-08-21 12:12:00,76.0,41.0,-100.00,South,186,5.0,19.0,29,0.00,,,0.00,,2013-08-21 18:12:00,
2013-08-21 12:22:00,76.0,41.0,-100.00,South,186,5.0,19.0,29,0.00,,,0.00,,2013-08-21 18:22:00,
2013-08-21 12:32:00,76.0,41.0,-100.00,South,186,5.0,19.0,29,0.00,,,0.00,,2013-08-21 18:32:00,
2013-08-21 12:42:00,78.0,43.0,-100.00,SSW,213,5.0,12.0,29,0.00,,,0.00,,2013-08-21 18:42:00,
2013-08-21 13:12:00,78.0,43.0,-100.00,SSW,213,5.0,12.0,29,0.00,,,0.00,,2013-08-21 19:12:00,
2013-08-21 13:22:00,78.0,43.0,-100.00,SSW,213,5.0,12.0,29,0.00,,,0.00,,2013-08-21 19:22:00,
2013-08-21 13:32:00,78.0,43.0,-100.00,SSW,213,5.0,12.0,29,0.00,,,0.00,,2013-08-21 19:32:00,
2013-08-21 13:42:00,80.0,41.0,-100.00,SSW,208,5.0,15.0,25,0.00,,,0.00,,2013-08-21 19:42:00,
2013-08-21 14:11:00,80.0,41.0,-100.00,SSW,208,5.0,15.0,25,0.00,,,0.00,,2013-08-21 20:11:00,
2013-08-21 14:22:00,80.0,41.0,-100.00,SSW,208,5.0,15.0,25,0.00,,,0.00,,2013-08-21 20:22:00,
2013-08-21 14:32:00,80.0,41.0,-100.00,SSW,208,5.0,15.0,25,0.00,,,0.00,,2013-08-21 20:32:00,
2013-08-21 14:42:00,76.0,38.0,-100.00,SW,219,5.0,11.0,25,0.00,,,0.00,,2013-08-21 20:42:00,
2013-08-21 15:12:00,76.0,38.0,-100.00,SW,219,5.0,11.0,25,0.00,,,0.00,,2013-08-21 21:12:00,
2013-08-21 15:21:00,76.0,38.0,-100.00,SW,219,5.0,11.0,25,0.00,,,0.00,,2013-08-21 21:21:00,
2013-08-21 15:34:00,76.0,38.0,-100.00,SW,219,5.0,11.0,25,0.00,,,0.00,,2013-08-21 21:34:00,
2013-08-21 15:42:00,79.0,37.0,-100.00,SSW,203,3.0,13.0,22,0.00,,,0.00,,2013-08-21 21:42:00,
2013-08-21 16:14:00,79.0,37.0,-100.00,SSW,203,3.0,13.0,22,0.00,,,0.00,,2013-08-21 22:14:00,
2013-08-21 16:24:00,79.0,37.0,-100.00,SSW,203,3.0,13.0,22,0.00,,,0.00,,2013-08-21 22:24:00,
2013-08-21 16:34:00,79.0,37.0,-100.00,SSW,203,3.0,13.0,22,0.00,,,0.00,,2013-08-21 22:34:00,
2013-08-21 16:42:00,81.0,36.0,-100.00,West,263,6.0,12.0,20,0.00,,,0.00,,2013-08-21 22:42:00,
2013-08-21 17:12:00,81.0,36.0,-100.00,West,263,6.0,12.0,20,0.00,,,0.00,,2013-08-21 23:12:00,
2013-08-21 17:22:00,81.0,36.0,-100.00,West,263,6.0,12.0,20,0.00,,,0.00,,2013-08-21 23:22:00,
2013-08-21 17:33:00,81.0,36.0,-100.00,West,263,6.0,12.0,20,0.00,,,0.00,,2013-08-21 23:33:00,
2013-08-21 17:42:00,78.0,36.0,-100.00,West,268,4.0,14.0,22,0.00,,,0.00,,2013-08-21 23:42:00,
2013-08-21 18:12:00,78.0,36.0,-100.00,West,268,4.0,14.0,22,0.00,,,0.00,,2013-08-22 00:12:00,
2013-08-21 18:21:00,78.0,36.0,-100.00,West,268,4.0,14.0,22,0.00,,,0.00,,2013-08-22 00:21:00,
2013-08-21 18:32:00,78.0,36.0,-100.00,West,268,4.0,14.0,22,0.00,,,0.00,,2013-08-22 00:32:00,
2013-08-21 18:42:00,77.0,32.0,-100.00,WSW,255,5.0,12.0,19,0.00,,,0.00,,2013-08-22 00:42:00,
2013-08-21 19:11:00,77.0,32.0,-100.00,WSW,255,5.0,12.0,19,0.00,,,0.00,,2013-08-22 01:11:00,
2013-08-21 19:22:00,77.0,32.0,-100.00,WSW,255,5.0,12.0,19,0.00,,,0.00,,2013-08-22 01:22:00,
2013-08-21 19:32:00,77.0,32.0,-100.00,WSW,255,5.0,12.0,19,0.00,,,0.00,,2013-08-22 01:32:00,
2013-08-21 19:42:00,70.0,34.0,-100.00,SSW,196,2.0,7.0,26,0.00,,,0.00,,2013-08-22 01:42:00,
2013-08-21 20:12:00,70.0,34.0,-100.00,SSW,196,2.0,7.0,26,0.00,,,0.00,,2013-08-22 02:12:00,
2013-08-21 20:22:00,70.0,34.0,-100.00,SSW,196,2.0,7.0,26,0.00,,,0.00,,2013-08-22 02:22:00,
2013-08-21 20:32:00,70.0,34.0,-100.00,SSW,196,2.0,7.0,26,0.00,,,0.00,,2013-08-22 02:32:00,
2013-08-21 20:42:00,62.0,33.0,-100.00,South,181,4.0,5.0,34,0.00,,,0.00,,2013-08-22 02:42:00,
2013-08-21 21:12:00,62.0,33.0,-100.00,South,181,4.0,5.0,34,0.00,,,0.00,,2013-08-22 03:12:00,
2013-08-21 21:22:00,62.0,33.0,-100.00,South,181,4.0,5.0,34,0.00,,,0.00,,2013-08-22 03:22:00,
2013-08-21 21:34:00,62.0,33.0,-100.00,South,181,4.0,5.0,34,0.00,,,0.00,,2013-08-22 03:34:00,
2013-08-21 21:42:00,61.0,34.0,-100.00,South,186,5.0,6.0,36,0.00,,,0.00,,2013-08-22 03:42:00,
2013-08-21 22:14:00,61.0,34.0,-100.00,South,186,5.0,6.0,36,0.00,,,0.00,,2013-08-22 04:14:00,
2013-08-21 22:23:00,61.0,34.0,-100.00,South,186,5.0,6.0,36,0.00,,,0.00,,2013-08-22 04:23:00,
2013-08-21 22:34:00,61.0,34.0,-100.00,South,186,5.0,6.0,36,0.00,,,0.00,,2013-08-22 04:34:00,
2013-08-21 22:42:00,57.0,34.0,-100.00,South,175,5.0,6.0,42,0.00,,,0.00,,2013-08-22 04:42:00,
2013-08-21 23:13:00,57.0,34.0,-100.00,South,175,5.0,6.0,42,0.00,,,0.00,,2013-08-22 05:13:00,
2013-08-21 23:22:00,57.0,34.0,-100.00,South,175,5.0,6.0,42,0.00,,,0.00,,2013-08-22 05:22:00,
2013-08-21 23:33:00,57.0,34.0,-100.00,South,175,5.0,6.0,42,0.00,,,0.00,,2013-08-22 05:33:00,
2013-08-21 23:42:00,59.0,34.0,-100.00,South,177,4.0,5.0,39,0.00,,,0.00,,2013-08-22 05:42:00,